createdAt,value
2023-03-01T00:01:32.175Z,95070.53
2023-03-01T00:04:00.495Z,95066.28
2023-03-01T00:06:28.908Z,95069.03
2023-03-01T00:08:55.912Z,95059.91
2023-03-01T00:11:27.981Z,95065.28
2023-03-01T00:13:59.068Z,95063.56
2023-03-01T00:16:35.522Z,95059.91
2023-03-01T00:19:03.162Z,95058.78
2023-03-01T00:21:30.292Z,95048.19
2023-03-01T00:23:57.954Z,95060.47
2023-03-01T00:26:26.664Z,95056.06
2023-03-01T00:28:54.703Z,95048.00
2023-03-01T00:31:24.907Z,95050.78
2023-03-01T00:33:59.889Z,95050.19
2023-03-01T00:36:30.826Z,95045.13
2023-03-01T00:38:58.183Z,95045.56
2023-03-01T00:41:27.588Z,95045.41
2023-03-01T00:43:54.744Z,95050.06
2023-03-01T00:46:26.283Z,95027.78
2023-03-01T00:48:53.280Z,95034.38
2023-03-01T00:51:27.345Z,95041.44
2023-03-01T00:53:57.783Z,95025.69
2023-03-01T00:56:24.986Z,95009.75
2023-03-01T00:58:52.070Z,95014.97
2023-03-01T01:01:23.527Z,95016.59
2023-03-01T01:03:57.431Z,95019.47
2023-03-01T01:06:31.265Z,95017.78
2023-03-01T01:08:58.343Z,94997.50
2023-03-01T01:11:27.681Z,95008.63
2023-03-01T01:13:55.530Z,95003.00
2023-03-01T01:16:25.656Z,94996.56
2023-03-01T01:18:53.185Z,94995.91
2023-03-01T01:21:23.030Z,94990.22
2023-03-01T01:23:50.791Z,94986.72
2023-03-01T01:26:25.245Z,94986.19
2023-03-01T01:28:52.811Z,94976.59
2023-03-01T01:31:21.013Z,94979.41
2023-03-01T01:33:48.094Z,94976.81
2023-03-01T01:36:14.971Z,94970.75
2023-03-01T01:38:43.501Z,94969.91
2023-03-01T01:41:14.968Z,94969.66
2023-03-01T01:43:45.573Z,94963.38
2023-03-01T01:46:34.144Z,94966.34
2023-03-01T01:49:05.925Z,94949.63
2023-03-01T01:51:41.943Z,94960.97
2023-03-01T01:54:29.352Z,94950.84
2023-03-01T01:57:03.136Z,94952.13
2023-03-01T01:59:33.406Z,94929.72
2023-03-01T02:02:03.189Z,94951.31
2023-03-01T02:04:32.498Z,94957.78
2023-03-01T02:07:10.572Z,94954.38
2023-03-01T02:09:37.607Z,94953.63
2023-03-01T02:12:05.709Z,94945.13
2023-03-01T02:14:32.529Z,94962.56
2023-03-01T02:16:59.366Z,94943.13
2023-03-01T02:19:51.972Z,94958.16
2023-03-01T02:22:36.211Z,94940.91
2023-03-01T02:25:52.505Z,94947.44
2023-03-01T02:28:42.361Z,94935.56
2023-03-01T02:31:30.215Z,94940.81
2023-03-01T02:33:58.430Z,94934.53
2023-03-01T02:39:03.046Z,94930.66
2023-03-01T02:41:33.851Z,94919.69
2023-03-01T02:44:00.613Z,94922.06
2023-03-01T02:46:27.544Z,94929.81
2023-03-01T02:48:57.813Z,94925.75
2023-03-01T02:51:58.042Z,94925.78
2023-03-01T02:54:55.544Z,94922.25
2023-03-01T02:57:24.835Z,94912.13
2023-03-01T02:59:53.934Z,94910.63
2023-03-01T03:02:37.846Z,94914.13
2023-03-01T03:05:18.787Z,94914.84
2023-03-01T03:07:48.397Z,94917.53
2023-03-01T03:10:25.581Z,94901.78
2023-03-01T03:12:58.960Z,94890.22
2023-03-01T03:15:28.226Z,94892.53
2023-03-01T03:17:55.240Z,94893.66
2023-03-01T03:20:25.485Z,94898.31
2023-03-01T03:22:56.924Z,94900.91
2023-03-01T03:25:24.590Z,94891.81
2023-03-01T03:27:57.912Z,94879.72
2023-03-01T03:30:33.796Z,94893.28
2023-03-01T03:33:00.890Z,94900.66
2023-03-01T03:35:35.047Z,94894.00
2023-03-01T03:38:16.424Z,94894.75
2023-03-01T03:40:53.206Z,94888.53
2023-03-01T03:43:24.442Z,94883.47
2023-03-01T03:45:53.040Z,94887.72
2023-03-01T03:48:20.315Z,94872.22
2023-03-01T03:50:56.049Z,94884.75
2023-03-01T03:53:26.482Z,94876.44
2023-03-01T03:55:54.386Z,94871.28
2023-03-01T03:58:24.752Z,94879.75
2023-03-01T04:00:58.744Z,94877.72
2023-03-01T04:03:27.778Z,94876.25
2023-03-01T04:05:54.867Z,94875.06
2023-03-01T04:08:23.720Z,94872.34
2023-03-01T04:10:53.367Z,94872.47
2023-03-01T04:13:23.546Z,94879.09
2023-03-01T04:15:52.080Z,94873.63
2023-03-01T04:18:21.650Z,94867.63
2023-03-01T04:20:49.112Z,94873.44
2023-03-01T04:23:21.852Z,94858.34
2023-03-01T04:25:58.868Z,94863.28
2023-03-01T04:28:30.839Z,94872.31
2023-03-01T04:30:59.756Z,94866.22
2023-03-01T04:33:27.031Z,94864.91
2023-03-01T04:35:54.073Z,94854.56
2023-03-01T04:38:22.417Z,94862.97
2023-03-01T04:40:49.720Z,94867.81
2023-03-01T04:43:16.539Z,94861.28
2023-03-01T04:45:43.837Z,94868.25
2023-03-01T04:48:10.677Z,94859.44
2023-03-01T04:50:37.570Z,94856.03
2023-03-01T04:53:04.801Z,94838.50
2023-03-01T04:55:32.719Z,94850.03
2023-03-01T04:58:00.135Z,94856.34
2023-03-01T05:00:27.465Z,94854.31
2023-03-01T05:03:01.237Z,94858.22
2023-03-01T05:05:40.134Z,94853.94
2023-03-01T05:08:09.268Z,94857.72
2023-03-01T05:10:41.828Z,94839.78
2023-03-01T05:13:09.210Z,94844.00
2023-03-01T05:15:37.593Z,94846.81
2023-03-01T05:18:04.595Z,94849.13
2023-03-01T05:20:31.566Z,94851.81
2023-03-01T05:23:00.805Z,94849.97
2023-03-01T05:25:28.403Z,94843.75
2023-03-01T05:27:55.184Z,94838.38
2023-03-01T05:30:22.731Z,94839.53
2023-03-01T05:32:56.925Z,94841.47
2023-03-01T05:35:24.374Z,94824.91
2023-03-01T05:37:52.298Z,94838.78
2023-03-01T05:40:25.278Z,94829.19
2023-03-01T05:42:57.295Z,94837.75
2023-03-01T05:45:26.447Z,94844.06
2023-03-01T05:47:55.179Z,94839.63
2023-03-01T05:50:26.435Z,94837.75
2023-03-01T05:53:00.220Z,94833.72
2023-03-01T05:55:29.250Z,94832.03
2023-03-01T05:57:56.679Z,94824.91
2023-03-01T06:00:23.702Z,94839.53
2023-03-01T06:02:51.496Z,94828.31
2023-03-01T06:05:19.010Z,94846.81
2023-03-01T06:07:45.838Z,94826.13
2023-03-01T06:10:14.014Z,94840.13
2023-03-01T06:12:42.589Z,94847.28
2023-03-01T06:15:11.815Z,94843.50
2023-03-01T06:17:41.632Z,94840.81
2023-03-01T06:20:15.516Z,94842.63
2023-03-01T06:22:43.336Z,94856.34
2023-03-01T06:25:13.930Z,94844.78
2023-03-01T06:27:41.172Z,94848.66
2023-03-01T06:30:10.965Z,94843.16
2023-03-01T06:32:38.822Z,94834.78
2023-03-01T06:35:06.582Z,94830.56
2023-03-01T06:37:33.337Z,94828.16
2023-03-01T06:40:00.126Z,94843.88
2023-03-01T06:42:26.928Z,94835.66
2023-03-01T06:44:53.656Z,94818.28
2023-03-01T06:47:20.396Z,94836.72
2023-03-01T06:49:47.098Z,94828.63
2023-03-01T06:52:13.817Z,94826.56
2023-03-01T06:54:40.553Z,94837.69
2023-03-01T06:57:07.311Z,94843.84
2023-03-01T06:59:34.026Z,94833.91
2023-03-01T07:02:00.819Z,94834.78
2023-03-01T07:04:29.665Z,94836.38
2023-03-01T07:06:56.429Z,94829.34
2023-03-01T07:09:24.966Z,94828.94
2023-03-01T07:11:51.967Z,94830.81
2023-03-01T07:14:18.743Z,94845.25
2023-03-01T07:16:45.474Z,94830.53
2023-03-01T07:19:12.273Z,94792.25
2023-03-01T07:21:39.772Z,94819.78
2023-03-01T07:24:09.845Z,94825.38
2023-03-01T07:26:37.393Z,94825.13
2023-03-01T07:29:07.667Z,94826.31
2023-03-01T07:31:34.766Z,94827.94
2023-03-01T07:34:01.519Z,94814.69
2023-03-01T07:36:28.346Z,94826.19
2023-03-01T07:38:56.777Z,94825.91
2023-03-01T07:41:23.593Z,94825.63
2023-03-01T07:43:50.317Z,94813.81
2023-03-01T07:46:17.116Z,94807.53
2023-03-01T07:48:43.839Z,94809.00
2023-03-01T07:51:11.265Z,94816.44
2023-03-01T07:53:38.313Z,94804.84
2023-03-01T07:56:11.874Z,94810.66
2023-03-01T07:58:43.565Z,94807.16
2023-03-01T08:01:17.204Z,94818.81
2023-03-01T08:03:44.840Z,94808.59
2023-03-01T08:06:14.245Z,94813.38
2023-03-01T08:08:41.244Z,94804.06
2023-03-01T08:11:15.477Z,94816.06
2023-03-01T08:13:44.444Z,94800.31
2023-03-01T08:16:15.518Z,94805.06
2023-03-01T08:18:44.153Z,94808.59
2023-03-01T08:21:15.144Z,94810.03
2023-03-01T08:23:44.015Z,94802.50
2023-03-01T08:26:13.887Z,94802.00
2023-03-01T08:28:41.805Z,94802.59
2023-03-01T08:31:23.328Z,94796.38
2023-03-01T08:33:57.330Z,94792.75
2023-03-01T08:36:31.668Z,94793.47
2023-03-01T08:38:59.224Z,94785.09
2023-03-01T08:41:26.404Z,94793.91
2023-03-01T08:43:53.964Z,94782.81
2023-03-01T08:46:20.719Z,94784.16
2023-03-01T08:48:50.233Z,94795.25
2023-03-01T08:51:19.364Z,94786.44
2023-03-01T08:53:46.634Z,94793.38
2023-03-01T08:56:14.346Z,94788.28
2023-03-01T08:58:41.321Z,94782.44
2023-03-01T09:01:10.015Z,94786.66
2023-03-01T09:03:37.287Z,94783.25
2023-03-01T09:06:06.533Z,94782.09
2023-03-01T09:08:37.657Z,94795.03
2023-03-01T09:11:07.138Z,94774.44
2023-03-01T09:13:34.121Z,94791.94
2023-03-01T09:16:03.810Z,94773.09
2023-03-01T09:18:30.749Z,94778.38
2023-03-01T09:21:09.346Z,94791.41
2023-03-01T09:23:39.860Z,94785.19
2023-03-01T09:26:09.967Z,94789.97
2023-03-01T09:28:42.044Z,94789.34
2023-03-01T09:31:09.504Z,94779.78
2023-03-01T09:33:36.337Z,94770.00
2023-03-01T09:36:11.080Z,94771.00
2023-03-01T09:38:37.807Z,94767.69
2023-03-01T09:41:12.600Z,94770.59
2023-03-01T09:43:56.474Z,94774.19
2023-03-01T09:46:25.914Z,94763.44
2023-03-01T09:49:11.871Z,94765.53
2023-03-01T09:51:38.816Z,94768.66
2023-03-01T09:54:07.352Z,94765.41
2023-03-01T09:56:53.081Z,94763.59
2023-03-01T09:59:58.848Z,94762.00
2023-03-01T10:02:49.066Z,94772.66
2023-03-01T10:05:53.324Z,94761.31
2023-03-01T10:08:47.907Z,94778.50
2023-03-01T10:11:25.079Z,94768.53
2023-03-01T10:14:31.985Z,94759.97
2023-03-01T10:17:05.340Z,94772.69
2023-03-01T10:19:38.727Z,94760.38
2023-03-01T10:22:24.424Z,94761.28
2023-03-01T10:24:53.882Z,94761.81
2023-03-01T10:27:37.851Z,94770.78
2023-03-01T10:30:24.058Z,94768.00
2023-03-01T10:32:54.993Z,94759.94
2023-03-01T10:35:29.644Z,94759.06
2023-03-01T10:38:08.412Z,94748.56
2023-03-01T10:40:37.520Z,94757.81
2023-03-01T10:43:07.076Z,94726.03
2023-03-01T10:45:40.543Z,94731.78
2023-03-01T10:48:18.405Z,94747.13
2023-03-01T10:51:18.782Z,94757.91
2023-03-01T10:53:52.829Z,94747.56
2023-03-01T10:56:19.620Z,94741.09
2023-03-01T10:59:05.645Z,94739.59
2023-03-01T11:01:36.887Z,94732.28
2023-03-01T11:04:06.465Z,94729.91
2023-03-01T11:06:41.345Z,94732.69
2023-03-01T11:09:22.260Z,94726.78
2023-03-01T11:11:57.990Z,94732.41
2023-03-01T11:14:28.321Z,94732.69
2023-03-01T11:17:04.611Z,94723.19
2023-03-01T11:19:32.441Z,94734.03
2023-03-01T11:22:21.278Z,94707.84
2023-03-01T11:25:07.075Z,94727.50
2023-03-01T11:27:42.084Z,94720.63
2023-03-01T11:30:21.107Z,94716.31
2023-03-01T11:33:02.785Z,94706.66
2023-03-01T11:35:30.737Z,94709.44
2023-03-01T11:38:26.288Z,94721.13
2023-03-01T11:41:26.471Z,94708.63
2023-03-01T11:44:02.558Z,94701.91
2023-03-01T11:46:32.281Z,94710.59
2023-03-01T11:49:30.021Z,94703.38
2023-03-01T11:52:08.110Z,94695.91
2023-03-01T11:54:51.194Z,94687.06
2023-03-01T11:57:42.541Z,94692.66
2023-03-01T12:00:39.667Z,94675.53
2023-03-01T12:03:35.043Z,94678.25
2023-03-01T12:06:45.124Z,94672.47
2023-03-01T12:09:39.486Z,94681.81
2023-03-01T12:12:43.721Z,94667.66
2023-03-01T12:15:25.757Z,94669.78
2023-03-01T12:18:03.776Z,94642.63
2023-03-01T12:20:49.718Z,94664.44
2023-03-01T12:24:22.509Z,94654.91
2023-03-01T12:26:59.181Z,94636.25
2023-03-01T12:29:58.275Z,94636.03
2023-03-01T12:32:36.801Z,94624.94
2023-03-01T12:35:53.362Z,94623.53
2023-03-01T12:38:38.751Z,94618.09
2023-03-01T12:41:44.692Z,94619.22
2023-03-01T12:44:51.172Z,94606.22
2023-03-01T12:48:12.142Z,94606.13
2023-03-01T12:50:49.093Z,94612.16
2023-03-01T12:53:28.748Z,94595.25
2023-03-01T12:56:13.117Z,94589.75
2023-03-01T12:58:56.870Z,94596.41
2023-03-01T13:01:58.029Z,94587.97
2023-03-01T13:04:46.746Z,94597.59
2023-03-01T13:07:54.692Z,94592.94
2023-03-01T13:10:33.303Z,94589.94
2023-03-01T13:13:09.987Z,94581.25
2023-03-01T13:15:38.883Z,94556.66
2023-03-01T13:18:26.675Z,94577.41
2023-03-01T13:20:58.603Z,94576.31
2023-03-01T13:23:34.395Z,94547.81
2023-03-01T13:26:12.537Z,94560.19
2023-03-01T13:28:45.338Z,94575.22
2023-03-01T13:31:32.270Z,94570.59
2023-03-01T13:34:08.399Z,94543.69
2023-03-01T13:36:38.468Z,94574.31
2023-03-01T13:39:24.546Z,94568.66
2023-03-01T13:41:54.307Z,94551.50
2023-03-01T13:44:39.883Z,94573.97
2023-03-01T13:47:14.920Z,94574.78
2023-03-01T13:50:04.143Z,94552.22
2023-03-01T13:52:52.368Z,94554.34
2023-03-01T13:55:28.484Z,94560.13
2023-03-01T13:58:00.964Z,94566.38
2023-03-01T14:00:39.353Z,94562.28
2023-03-01T14:03:13.699Z,94562.72
2023-03-01T14:05:45.248Z,94561.53
2023-03-01T14:08:29.129Z,94572.41
2023-03-01T14:11:14.732Z,94578.06
2023-03-01T14:13:59.964Z,94571.66
2023-03-01T14:16:50.691Z,94573.44
2023-03-01T14:19:34.904Z,94578.31
2023-03-01T14:22:17.190Z,94570.56
2023-03-01T14:25:31.186Z,94567.28
2023-03-01T14:28:04.696Z,94572.38
2023-03-01T14:30:40.880Z,94567.47
2023-03-01T14:33:27.169Z,94565.09
2023-03-01T14:36:14.372Z,94572.75
2023-03-01T14:41:16.642Z,94578.91
2023-03-01T14:44:01.613Z,94582.63
2023-03-01T14:46:37.661Z,94571.84
2023-03-01T14:49:15.284Z,94581.19
2023-03-01T14:51:51.316Z,94568.84
2023-03-01T14:54:27.194Z,94580.53
2023-03-01T14:56:58.612Z,94573.69
2023-03-01T14:59:25.613Z,94566.44
2023-03-01T15:01:54.969Z,94549.84
2023-03-01T15:04:24.072Z,94533.22
2023-03-01T15:06:56.393Z,94532.28
2023-03-01T15:09:23.974Z,94509.97
2023-03-01T15:11:50.751Z,94499.59
2023-03-01T15:14:44.105Z,94501.72
2023-03-01T15:17:44.923Z,94504.25
2023-03-01T15:20:22.780Z,94507.63
2023-03-01T15:22:49.799Z,94517.16
2023-03-01T15:25:28.017Z,94518.75
2023-03-01T15:27:56.751Z,94518.00
2023-03-01T15:30:41.950Z,94534.59
2023-03-01T15:33:48.111Z,94521.09
2023-03-01T15:36:40.295Z,94529.47
2023-03-01T15:39:26.940Z,94507.41
2023-03-01T15:41:53.684Z,94493.44
2023-03-01T15:44:43.485Z,94516.53
2023-03-01T15:47:32.048Z,94507.78
2023-03-01T15:50:01.097Z,94524.63
2023-03-01T15:52:40.502Z,94528.75
2023-03-01T15:55:24.490Z,94530.03
2023-03-01T15:58:01.532Z,94523.97
2023-03-01T16:00:29.893Z,94525.31
2023-03-01T16:02:57.060Z,94515.16
2023-03-01T16:05:28.352Z,94527.63
2023-03-01T16:07:55.873Z,94526.88
2023-03-01T16:10:23.554Z,94527.19
2023-03-01T16:12:53.541Z,94542.56
2023-03-01T16:15:24.445Z,94536.56
2023-03-01T16:17:51.792Z,94534.66
2023-03-01T16:20:27.918Z,94533.78
2023-03-01T16:22:55.612Z,94530.19
2023-03-01T16:25:22.640Z,94537.03
2023-03-01T16:27:51.463Z,94531.56
2023-03-01T16:30:22.021Z,94543.81
2023-03-01T16:32:50.402Z,94541.88
2023-03-01T16:35:21.604Z,94557.94
2023-03-01T16:37:49.659Z,94553.69
2023-03-01T16:40:22.400Z,94551.50
2023-03-01T16:42:51.024Z,94557.69
2023-03-01T16:45:24.412Z,94558.50
2023-03-01T16:47:55.687Z,94556.44
2023-03-01T16:50:23.768Z,94555.63
2023-03-01T16:52:50.775Z,94561.53
2023-03-01T16:55:17.851Z,94570.03
2023-03-01T16:57:44.907Z,94557.97
2023-03-01T17:00:14.305Z,94570.88
2023-03-01T17:02:42.830Z,94565.09
2023-03-01T17:05:12.884Z,94574.38
2023-03-01T17:07:40.531Z,94568.91
2023-03-01T17:10:10.741Z,94576.53
2023-03-01T17:12:38.061Z,94569.94
2023-03-01T17:15:06.661Z,94577.06
2023-03-01T17:17:33.696Z,94584.47
2023-03-01T17:20:01.292Z,94585.28
2023-03-01T17:22:29.714Z,94595.69
2023-03-01T17:24:56.436Z,94592.09
2023-03-01T17:27:25.398Z,94596.06
2023-03-01T17:29:52.308Z,94584.91
2023-03-01T17:32:19.454Z,94601.09
2023-03-01T17:34:46.605Z,94596.28
2023-03-01T17:37:13.332Z,94602.84
2023-03-01T17:39:40.082Z,94604.44
2023-03-01T17:42:07.319Z,94604.22
2023-03-01T17:44:34.832Z,94599.84
2023-03-01T17:47:03.443Z,94601.41
2023-03-01T17:49:31.237Z,94604.59
2023-03-01T17:51:58.451Z,94613.19
2023-03-01T17:54:25.248Z,94620.41
2023-03-01T17:56:52.580Z,94620.72
2023-03-01T17:59:19.724Z,94619.19
2023-03-01T18:01:46.956Z,94620.97
2023-03-01T18:04:14.065Z,94623.06
2023-03-01T18:06:41.059Z,94609.88
2023-03-01T18:09:08.314Z,94610.81
2023-03-01T18:11:36.121Z,94603.84
2023-03-01T18:14:04.114Z,94602.72
2023-03-01T18:16:32.258Z,94600.94
2023-03-01T18:19:00.903Z,94604.47
2023-03-01T18:21:30.908Z,94597.50
2023-03-01T18:23:59.731Z,94603.53
2023-03-01T18:26:28.232Z,94599.34
2023-03-01T18:28:58.345Z,94602.56
2023-03-01T18:31:26.126Z,94598.56
2023-03-01T18:33:55.290Z,94597.88
2023-03-01T18:36:33.437Z,94585.38
2023-03-01T18:39:03.770Z,94582.66
2023-03-01T18:41:30.768Z,94591.84
2023-03-01T18:43:57.892Z,94593.06
2023-03-01T18:46:26.049Z,94595.41
2023-03-01T18:48:54.356Z,94585.94
2023-03-01T18:51:27.731Z,94590.06
2023-03-01T18:53:56.016Z,94584.06
2023-03-01T18:56:22.804Z,94577.22
2023-03-01T18:58:50.526Z,94584.31
2023-03-01T19:01:28.848Z,94588.38
2023-03-01T19:03:56.669Z,94573.78
2023-03-01T19:06:25.425Z,94576.63
2023-03-01T19:08:53.435Z,94575.31
2023-03-01T19:11:20.464Z,94564.97
2023-03-01T19:13:47.896Z,94578.03
2023-03-01T19:16:18.288Z,94575.44
2023-03-01T19:18:54.597Z,94567.88
2023-03-01T19:21:25.314Z,94560.22
2023-03-01T19:23:52.514Z,94558.84
2023-03-01T19:26:22.595Z,94544.34
2023-03-01T19:28:50.043Z,94563.81
2023-03-01T19:31:23.608Z,94546.81
2023-03-01T19:33:51.387Z,94551.06
2023-03-01T19:36:21.447Z,94546.81
2023-03-01T19:38:49.014Z,94540.81
2023-03-01T19:41:18.113Z,94538.56
2023-03-01T19:43:47.078Z,94539.97
2023-03-01T19:46:15.204Z,94538.06
2023-03-01T19:48:44.584Z,94527.28
2023-03-01T19:51:12.458Z,94524.44
2023-03-01T19:53:40.717Z,94524.88
2023-03-01T19:56:08.844Z,94519.09
2023-03-01T19:58:36.458Z,94515.19
2023-03-01T20:01:03.365Z,94508.41
2023-03-01T20:03:35.862Z,94520.97
2023-03-01T20:06:13.372Z,94519.31
2023-03-01T20:08:40.129Z,94523.44
2023-03-01T20:11:10.719Z,94528.97
2023-03-01T20:13:37.799Z,94529.06
2023-03-01T20:16:06.043Z,94525.28
2023-03-01T20:18:33.625Z,94531.41
2023-03-01T20:21:00.479Z,94518.75
2023-03-01T20:23:30.251Z,94516.06
2023-03-01T20:26:08.083Z,94521.22
2023-03-01T20:28:36.973Z,94517.03
2023-03-01T20:31:11.035Z,94519.63
2023-03-01T20:33:38.476Z,94526.16
2023-03-01T20:36:07.504Z,94526.03
2023-03-01T20:38:34.971Z,94541.13
2023-03-01T20:41:08.755Z,94528.91
2023-03-01T20:43:36.169Z,94541.69
2023-03-01T20:46:08.305Z,94537.38
2023-03-01T20:48:35.088Z,94536.28
2023-03-01T20:51:06.699Z,94537.88
2023-03-01T20:53:33.702Z,94536.34
2023-03-01T20:56:09.240Z,94531.16
2023-03-01T20:58:36.492Z,94532.09
2023-03-01T21:01:05.254Z,94518.13
2023-03-01T21:03:32.241Z,94531.31
2023-03-01T21:06:02.162Z,94519.28
2023-03-01T21:08:30.497Z,94523.53
2023-03-01T21:10:58.087Z,94510.47
2023-03-01T21:13:26.970Z,94526.41
2023-03-01T21:16:00.356Z,94519.53
2023-03-01T21:18:29.820Z,94500.34
2023-03-01T21:21:01.291Z,94524.72
2023-03-01T21:23:34.459Z,94521.44
2023-03-01T21:26:33.116Z,94526.19
2023-03-01T21:29:04.080Z,94522.91
2023-03-01T21:31:34.886Z,94524.13
2023-03-01T21:34:05.768Z,94524.09
2023-03-01T21:36:34.041Z,94519.31
2023-03-01T21:39:05.378Z,94519.66
2023-03-01T21:41:35.802Z,94524.41
2023-03-01T21:44:04.957Z,94508.34
2023-03-01T21:46:36.997Z,94511.66
2023-03-01T21:49:05.804Z,94510.72
2023-03-01T21:51:33.420Z,94512.63
2023-03-01T21:54:03.354Z,94514.06
2023-03-01T21:56:35.169Z,94506.09
2023-03-01T21:59:02.407Z,94513.97
2023-03-01T22:01:29.492Z,94497.56
2023-03-01T22:03:58.714Z,94500.28
2023-03-01T22:06:34.272Z,94504.28
2023-03-01T22:09:06.084Z,94493.13
2023-03-01T22:11:36.593Z,94495.72
2023-03-01T22:14:05.029Z,94485.09
2023-03-01T22:16:35.680Z,94490.75
2023-03-01T22:19:04.790Z,94491.94
2023-03-01T22:21:31.548Z,94495.47
2023-03-01T22:23:58.600Z,94480.38
2023-03-01T22:26:34.573Z,94484.88
2023-03-01T22:29:05.402Z,94485.59
2023-03-01T22:31:32.247Z,94488.66
2023-03-01T22:33:59.992Z,94492.88
2023-03-01T22:36:27.878Z,94489.47
2023-03-01T22:39:00.294Z,94478.75
2023-03-01T22:41:34.688Z,94487.00
2023-03-01T22:44:01.537Z,94485.09
2023-03-01T22:46:29.198Z,94480.63
2023-03-01T22:48:56.638Z,94478.00
2023-03-01T22:51:30.482Z,94484.06
2023-03-01T22:53:57.957Z,94482.38
2023-03-01T22:56:29.144Z,94477.56
2023-03-01T22:58:58.119Z,94483.56
2023-03-01T23:01:26.606Z,94474.00
2023-03-01T23:03:53.875Z,94468.59
2023-03-01T23:06:22.457Z,94468.59
2023-03-01T23:08:56.015Z,94457.53
2023-03-01T23:11:25.724Z,94462.44
2023-03-01T23:13:54.574Z,94471.88
2023-03-01T23:16:26.163Z,94461.66
2023-03-01T23:18:55.651Z,94456.66
2023-03-01T23:21:23.111Z,94453.34
2023-03-01T23:23:50.093Z,94455.13
2023-03-01T23:26:18.526Z,94453.13
2023-03-01T23:28:45.390Z,94452.28
2023-03-01T23:31:15.013Z,94450.88
2023-03-01T23:33:44.607Z,94456.28
2023-03-01T23:36:31.138Z,94458.63
2023-03-01T23:39:04.372Z,94456.47
2023-03-01T23:41:33.164Z,94460.63
2023-03-01T23:44:02.567Z,94456.84
2023-03-01T23:46:33.921Z,94448.03
2023-03-01T23:49:02.049Z,94460.25
2023-03-01T23:51:28.953Z,94443.28
2023-03-01T23:54:01.851Z,94456.06
2023-03-01T23:56:32.990Z,94457.00
2023-03-01T23:59:04.132Z,94451.50
